createdAt,value
2023-04-22T11:03:26.322Z,8128.00
2023-04-22T11:04:26.188Z,7884.00
2023-04-22T11:05:26.385Z,8464.00
2023-04-22T11:06:26.091Z,9500.00
2023-04-22T11:07:26.081Z,10248.00
2023-04-22T11:08:26.064Z,9916.00
2023-04-22T11:09:26.053Z,9540.00
2023-04-22T11:10:26.111Z,9340.00
2023-04-22T11:11:26.044Z,8740.00
2023-04-22T11:12:26.051Z,7992.00
2023-04-22T11:13:26.022Z,7592.00
2023-04-22T11:14:26.013Z,7432.00
2023-04-22T11:15:26.005Z,7428.00
2023-04-22T11:16:26.029Z,7208.00
2023-04-22T11:17:26.022Z,7356.00
2023-04-22T11:18:25.981Z,7236.00
2023-04-22T11:19:25.977Z,7468.00
2023-04-22T11:20:25.980Z,8268.00
2023-04-22T11:21:25.966Z,8568.00
2023-04-22T11:22:25.957Z,8316.00
2023-04-22T11:23:26.151Z,7784.00
2023-04-22T11:24:25.964Z,7096.00
2023-04-22T11:25:25.935Z,6964.00
2023-04-22T11:26:25.936Z,9068.00
2023-04-22T11:27:25.937Z,8316.00
2023-04-22T11:28:25.938Z,9440.00
2023-04-22T11:29:25.916Z,10276.00
2023-04-22T11:30:25.913Z,10048.00
2023-04-22T11:31:25.952Z,5936.00
2023-04-22T11:32:25.909Z,9696.00
2023-04-22T11:33:25.895Z,10028.00
2023-04-22T11:34:25.887Z,10560.00
2023-04-22T11:35:25.902Z,10648.00
2023-04-22T11:36:25.962Z,11408.00
2023-04-22T11:37:25.878Z,11624.00
2023-04-22T11:38:25.873Z,9300.00
2023-04-22T11:39:25.867Z,5780.00
2023-04-22T11:40:29.872Z,9412.00
2023-04-22T11:41:25.870Z,8252.00
2023-04-22T11:42:25.881Z,8704.00
2023-04-22T11:43:25.871Z,8256.00
2023-04-22T11:44:25.846Z,8744.00
2023-04-22T11:45:25.850Z,8500.00
2023-04-22T11:46:25.910Z,8848.00
2023-04-22T11:47:25.846Z,7692.00
2023-04-22T11:48:25.864Z,8288.00
2023-04-22T11:49:25.821Z,8412.00
2023-04-22T11:50:25.829Z,9044.00
2023-04-22T11:51:25.826Z,9388.00
2023-04-22T11:52:25.813Z,9636.00
2023-04-22T11:53:25.818Z,8940.00
2023-04-22T11:54:25.803Z,9324.00
2023-04-22T11:55:25.799Z,8204.00
2023-04-22T11:56:25.827Z,7528.00
2023-04-22T11:57:25.786Z,7036.00
2023-04-22T11:58:25.834Z,6788.00
2023-04-22T11:59:25.788Z,7268.00
2023-04-22T12:00:25.786Z,8368.00
2023-04-22T12:01:25.768Z,8232.00
2023-04-22T12:02:26.032Z,8560.00
2023-04-22T12:03:25.964Z,9656.00
2023-04-22T12:04:25.887Z,9952.00
2023-04-22T12:05:25.810Z,10224.00
2023-04-22T12:06:25.748Z,10940.00
2023-04-22T12:07:25.757Z,10116.00
2023-04-22T12:08:25.744Z,12668.00
2023-04-22T12:09:25.849Z,13260.00
2023-04-22T12:10:25.740Z,13392.00
2023-04-22T12:11:25.734Z,12604.00
2023-04-22T12:12:25.750Z,11748.00
2023-04-22T12:13:25.741Z,10492.00
2023-04-22T12:14:25.717Z,11372.00
2023-04-22T12:15:25.723Z,10724.00
2023-04-22T12:16:25.769Z,13448.00
2023-04-22T12:17:25.786Z,13580.00
2023-04-22T12:18:25.771Z,13952.00
2023-04-22T12:19:25.749Z,13392.00
2023-04-22T12:20:25.701Z,15168.00
2023-04-22T12:21:25.696Z,12256.00
2023-04-22T12:22:25.699Z,12856.00
2023-04-22T12:23:25.709Z,13112.00
2023-04-22T12:24:25.731Z,12136.00
2023-04-22T12:25:25.688Z,13252.00
2023-04-22T12:26:26.947Z,14688.00
2023-04-22T12:27:25.681Z,10580.00
2023-04-22T12:28:25.679Z,9324.00
2023-04-22T12:29:25.709Z,11276.00
2023-04-22T12:30:25.683Z,7284.00
2023-04-22T12:31:25.782Z,7224.00
2023-04-22T12:32:25.668Z,8316.00
2023-04-22T12:33:25.781Z,8908.00
2023-04-22T12:34:25.717Z,10392.00
2023-04-22T12:35:25.665Z,11816.00
2023-04-22T12:36:25.673Z,12768.00
2023-04-22T12:37:25.660Z,12732.00
2023-04-22T12:38:25.658Z,10944.00
2023-04-22T12:39:25.667Z,9624.00
2023-04-22T12:40:25.659Z,9164.00
2023-04-22T12:41:25.656Z,10484.00
2023-04-22T12:42:25.648Z,10556.00
2023-04-22T12:43:25.652Z,13488.00
2023-04-22T12:44:25.639Z,14944.00
2023-04-22T12:45:25.662Z,16224.00
2023-04-22T12:46:25.693Z,15456.00
2023-04-22T12:47:25.646Z,16576.00
2023-04-22T12:48:25.637Z,12508.00
2023-04-22T12:49:25.624Z,10380.00
2023-04-22T12:50:25.649Z,10116.00
2023-04-22T12:51:25.649Z,10536.00
2023-04-22T12:52:25.620Z,10616.00
2023-04-22T12:53:25.663Z,5984.00
2023-04-22T12:54:25.619Z,11284.00
2023-04-22T12:55:25.614Z,8588.00
2023-04-22T12:56:25.715Z,7692.00
2023-04-22T12:57:25.599Z,9588.00
2023-04-22T12:58:25.604Z,6300.00
2023-04-22T12:59:25.598Z,4040.00
2023-04-22T13:00:25.594Z,3724.00
2023-04-22T13:01:25.603Z,3624.00
2023-04-22T13:02:25.672Z,3600.00
2023-04-22T13:03:25.794Z,4028.00
2023-04-22T13:04:25.621Z,4816.00
2023-04-22T13:05:25.568Z,5164.00
2023-04-22T13:06:25.573Z,5308.00
2023-04-22T13:07:25.556Z,5208.00
2023-04-22T13:08:25.577Z,5112.00
2023-04-22T13:09:25.561Z,4952.00
2023-04-22T13:10:25.578Z,4860.00
2023-04-22T13:11:25.544Z,5036.00
2023-04-22T13:12:25.530Z,5332.00
2023-04-22T13:13:25.552Z,4872.00
2023-04-22T13:14:25.530Z,4364.00
2023-04-22T13:15:25.514Z,4416.00
2023-04-22T13:16:25.562Z,5668.00
2023-04-22T13:17:25.545Z,10796.00
2023-04-22T13:18:25.532Z,7072.00
2023-04-22T13:19:25.531Z,6284.00
2023-04-22T13:20:25.483Z,5900.00
2023-04-22T13:21:25.515Z,5068.00
2023-04-22T13:22:25.525Z,4780.00
2023-04-22T13:23:25.492Z,6380.00
2023-04-22T13:24:25.459Z,5448.00
2023-04-22T13:25:25.589Z,6452.00
2023-04-22T13:26:25.570Z,7052.00
2023-04-22T13:27:25.519Z,19840.00
2023-04-22T13:28:25.639Z,20256.00
2023-04-22T13:29:25.500Z,18560.00
2023-04-22T13:30:25.430Z,18848.00
2023-04-22T13:31:25.472Z,8828.00
2023-04-22T13:32:25.690Z,5892.00
2023-04-22T13:33:25.460Z,4888.00
2023-04-22T13:34:25.437Z,7148.00
2023-04-22T13:35:25.405Z,22400.00
2023-04-22T13:36:25.421Z,6516.00
2023-04-22T13:37:25.391Z,20192.00
2023-04-22T13:38:25.508Z,21312.00
2023-04-22T13:39:25.371Z,22336.00
2023-04-22T13:40:25.369Z,7452.00
2023-04-22T13:41:25.370Z,16704.00
2023-04-22T13:42:25.357Z,7704.00
2023-04-22T13:43:25.482Z,6652.00
2023-04-22T13:44:25.363Z,6608.00
2023-04-22T13:45:25.350Z,15552.00
2023-04-22T13:46:25.501Z,20640.00
2023-04-22T13:47:25.457Z,18784.00
2023-04-22T13:48:25.332Z,16640.00
2023-04-22T13:49:25.329Z,15936.00
2023-04-22T13:50:25.317Z,11580.00
2023-04-22T13:51:25.339Z,13336.00
2023-04-22T13:52:25.312Z,6796.00
2023-04-22T13:53:25.348Z,11392.00
2023-04-22T13:54:25.365Z,7984.00
2023-04-22T13:55:25.298Z,5868.00
2023-04-22T13:56:25.301Z,12040.00
2023-04-22T13:57:25.432Z,16288.00
2023-04-22T13:58:25.289Z,18368.00
2023-04-22T13:59:25.289Z,6500.00
2023-04-22T14:00:25.306Z,5868.00
2023-04-22T14:01:25.342Z,5928.00
2023-04-22T14:02:25.349Z,5064.00
2023-04-22T14:03:25.440Z,4876.00
2023-04-22T14:04:25.286Z,4644.00
2023-04-22T14:05:25.304Z,4464.00
2023-04-22T14:06:25.259Z,3852.00
2023-04-22T14:07:25.255Z,3312.00
2023-04-22T14:08:25.251Z,3332.00
2023-04-22T14:09:25.244Z,3588.00
2023-04-22T14:10:27.241Z,3884.00
2023-04-22T14:11:25.239Z,4332.00
2023-04-22T14:12:25.229Z,4456.00
2023-04-22T14:13:25.218Z,4376.00
2023-04-22T14:14:25.230Z,4376.00
2023-04-22T14:15:25.211Z,5292.00
2023-04-22T14:16:25.246Z,6056.00
2023-04-22T14:17:25.195Z,16608.00
2023-04-22T14:18:25.188Z,18144.00
2023-04-22T14:19:25.183Z,14208.00
2023-04-22T14:20:25.256Z,22336.00
2023-04-22T14:21:27.176Z,21536.00
2023-04-22T14:22:25.186Z,19296.00
2023-04-22T14:23:25.162Z,16800.00
2023-04-22T14:24:25.170Z,15520.00
2023-04-22T14:25:25.158Z,10396.00
2023-04-22T14:26:25.147Z,10340.00
2023-04-22T14:27:25.174Z,5288.00
2023-04-22T14:28:25.133Z,4636.00
2023-04-22T14:29:25.143Z,10456.00
2023-04-22T14:30:25.129Z,13144.00
2023-04-22T14:31:25.190Z,11400.00
2023-04-22T14:32:25.216Z,9508.00
2023-04-22T14:33:25.122Z,6152.00
2023-04-22T14:34:25.108Z,10968.00
2023-04-22T14:35:25.102Z,9924.00
2023-04-22T14:36:25.094Z,17184.00
2023-04-22T14:37:25.135Z,5036.00
2023-04-22T14:38:25.086Z,5120.00
2023-04-22T14:39:25.075Z,6268.00
2023-04-22T14:40:25.069Z,17440.00
2023-04-22T14:41:25.065Z,17600.00
2023-04-22T14:42:25.064Z,16928.00
2023-04-22T14:43:25.058Z,18240.00
2023-04-22T14:44:25.060Z,5828.00
2023-04-22T14:45:25.042Z,4924.00
2023-04-22T14:46:25.059Z,10212.00
2023-04-22T14:47:25.177Z,7912.00
2023-04-22T14:48:25.025Z,8452.00
2023-04-22T14:49:25.025Z,4024.00
2023-04-22T14:50:25.012Z,3844.00
2023-04-22T14:51:25.020Z,3780.00
2023-04-22T14:52:25.008Z,4056.00
2023-04-22T14:53:25.054Z,4196.00
2023-04-22T14:54:24.993Z,4336.00
2023-04-22T14:55:24.997Z,4468.00
2023-04-22T14:56:24.986Z,4288.00
2023-04-22T14:57:24.974Z,4068.00
2023-04-22T14:58:24.967Z,3996.00
2023-04-22T14:59:25.022Z,3896.00
2023-04-22T15:00:24.963Z,3712.00
2023-04-22T15:01:24.962Z,3676.00
2023-04-22T15:02:25.071Z,3636.00
2023-04-22T15:03:25.127Z,3664.00
2023-04-22T15:04:25.091Z,4408.00
2023-04-22T15:05:24.940Z,4012.00
2023-04-22T15:06:24.915Z,4420.00
2023-04-22T15:07:24.912Z,4568.00
2023-04-22T15:08:24.905Z,4028.00
2023-04-22T15:09:24.948Z,3968.00
2023-04-22T15:10:24.894Z,4048.00
2023-04-22T15:11:24.891Z,4384.00
2023-04-22T15:12:24.882Z,6968.00
2023-04-22T15:13:24.868Z,7712.00
2023-04-22T15:14:24.858Z,9364.00
2023-04-22T15:15:24.856Z,8084.00
2023-04-22T15:16:24.890Z,7312.00
2023-04-22T15:17:24.888Z,5684.00
2023-04-22T15:18:24.854Z,5300.00
2023-04-22T15:19:24.839Z,5004.00
2023-04-22T15:20:24.817Z,4648.00
2023-04-22T15:21:24.812Z,4452.00
2023-04-22T15:22:24.806Z,4388.00
2023-04-22T15:23:24.807Z,4384.00
2023-04-22T15:24:24.804Z,4364.00
2023-04-22T15:25:24.793Z,4304.00
2023-04-22T15:26:24.783Z,4172.00
2023-04-22T15:27:24.770Z,3952.00
2023-04-22T15:28:24.759Z,3772.00
2023-04-22T15:29:24.756Z,3692.00
2023-04-22T15:30:24.751Z,3664.00
2023-04-22T15:31:24.800Z,3684.00
2023-04-22T15:32:24.787Z,3724.00
2023-04-22T15:33:24.725Z,3792.00
2023-04-22T15:34:24.722Z,3828.00
2023-04-22T15:35:24.724Z,3880.00
2023-04-22T15:36:24.700Z,3976.00
2023-04-22T15:37:24.695Z,4064.00
2023-04-22T15:38:24.754Z,4128.00
2023-04-22T15:39:24.700Z,4256.00
2023-04-22T15:40:24.686Z,4336.00
2023-04-22T15:41:24.677Z,5160.00
2023-04-22T15:42:24.663Z,4644.00
2023-04-22T15:43:24.678Z,4864.00
2023-04-22T15:44:24.640Z,4740.00
2023-04-22T15:45:24.635Z,4376.00
2023-04-22T15:46:24.642Z,4136.00
2023-04-22T15:47:24.661Z,4052.00
2023-04-22T15:48:24.653Z,4040.00
2023-04-22T15:49:24.608Z,3972.00
2023-04-22T15:50:24.616Z,3896.00
2023-04-22T15:51:24.608Z,3672.00
2023-04-22T15:52:24.592Z,3348.00
2023-04-22T15:53:24.924Z,3400.00
2023-04-22T15:54:24.569Z,2824.00
2023-04-22T15:55:24.589Z,2476.00
2023-04-22T15:56:24.549Z,2136.00
2023-04-22T15:57:24.558Z,1824.00
2023-04-22T15:58:24.533Z,1648.00
2023-04-22T15:59:24.558Z,1520.00
2023-04-22T16:00:24.550Z,1300.00
2023-04-22T16:01:24.545Z,1016.00
2023-04-22T16:02:24.563Z,864.00
2023-04-22T16:03:24.568Z,796.00
2023-04-22T16:04:24.667Z,768.00
2023-04-22T16:05:24.692Z,752.00
2023-04-22T16:06:24.470Z,744.00
2023-04-22T16:07:24.526Z,712.00
2023-04-22T16:08:24.454Z,636.00
2023-04-22T16:09:24.478Z,544.00
2023-04-22T16:10:24.449Z,484.00
2023-04-22T16:11:24.437Z,436.00
2023-04-22T16:12:24.514Z,440.00
2023-04-22T16:13:24.415Z,472.00
2023-04-22T16:14:24.407Z,424.00
2023-04-22T16:15:24.396Z,380.00
2023-04-22T16:16:24.393Z,360.00
2023-04-22T16:17:24.423Z,384.00
2023-04-22T16:18:24.367Z,440.00
2023-04-22T16:19:24.376Z,516.00
2023-04-22T16:20:24.376Z,592.00
2023-04-22T16:21:24.352Z,684.00
2023-04-22T16:22:24.359Z,724.00
2023-04-22T16:23:24.348Z,788.00
2023-04-22T16:24:24.319Z,832.00
2023-04-22T16:25:24.331Z,824.00
2023-04-22T16:26:24.316Z,780.00
2023-04-22T16:27:24.315Z,768.00
2023-04-22T16:28:24.281Z,704.00
2023-04-22T16:29:24.269Z,668.00
2023-04-22T16:30:24.304Z,648.00
2023-04-22T16:31:24.388Z,672.00
2023-04-22T16:32:24.242Z,652.00
2023-04-22T16:33:24.236Z,596.00
2023-04-22T16:34:24.226Z,524.00
2023-04-22T16:35:24.251Z,476.00
2023-04-22T16:36:24.214Z,424.00
2023-04-22T16:37:24.200Z,392.00
2023-04-22T16:38:24.189Z,392.00
2023-04-22T16:39:24.185Z,408.00
2023-04-22T16:40:24.211Z,452.00
2023-04-22T16:41:24.234Z,492.00
2023-04-22T16:42:24.147Z,532.00
2023-04-22T16:43:24.137Z,560.00
2023-04-22T16:44:24.130Z,588.00
2023-04-22T16:45:24.119Z,568.00
2023-04-22T16:46:24.151Z,536.00
2023-04-22T16:47:24.142Z,476.00
2023-04-22T16:48:24.091Z,432.00
2023-04-22T16:49:24.140Z,432.00
2023-04-22T16:50:24.073Z,448.00
2023-04-22T16:51:24.097Z,480.00
2023-04-22T16:52:24.071Z,532.00
2023-04-22T16:53:24.051Z,580.00
2023-04-22T16:54:24.038Z,656.00
2023-04-22T16:55:24.028Z,744.00
2023-04-22T16:56:24.025Z,804.00
2023-04-22T16:57:24.038Z,808.00
2023-04-22T16:58:24.001Z,792.00
2023-04-22T16:59:23.984Z,804.00
2023-04-22T17:00:23.994Z,792.00
2023-04-22T17:01:24.065Z,744.00
2023-04-22T17:02:24.106Z,660.00
2023-04-22T17:03:24.061Z,608.00
2023-04-22T17:04:24.061Z,588.00
2023-04-22T17:05:23.926Z,536.00
2023-04-22T17:06:23.924Z,488.00
2023-04-22T17:07:23.908Z,476.00
2023-04-22T17:08:23.897Z,460.00
2023-04-22T17:09:23.891Z,420.00
2023-04-22T17:10:23.875Z,396.00
2023-04-22T17:11:23.918Z,364.00
2023-04-22T17:12:23.857Z,344.00
2023-04-22T17:13:23.875Z,332.00
2023-04-22T17:14:23.872Z,308.00
2023-04-22T17:15:23.829Z,288.00
2023-04-22T17:16:23.922Z,268.00
2023-04-22T17:17:23.824Z,248.00
2023-04-22T17:18:23.821Z,244.00
2023-04-22T17:19:23.828Z,256.00
2023-04-22T17:20:23.786Z,272.00
2023-04-22T17:21:23.759Z,292.00
2023-04-22T17:22:23.750Z,284.00
2023-04-22T17:23:23.767Z,272.00
2023-04-22T17:24:23.768Z,264.00
2023-04-22T17:25:23.720Z,276.00
2023-04-22T17:26:23.707Z,300.00
2023-04-22T17:27:23.704Z,320.00
2023-04-22T17:28:23.688Z,348.00
2023-04-22T17:29:23.714Z,352.00
2023-04-22T17:30:23.664Z,364.00
2023-04-22T17:31:23.782Z,332.00
2023-04-22T17:32:23.657Z,324.00
2023-04-22T17:33:23.645Z,308.00
2023-04-22T17:34:23.620Z,308.00
2023-04-22T17:35:23.637Z,308.00
2023-04-22T17:36:23.617Z,336.00
2023-04-22T17:37:23.600Z,372.00
2023-04-22T17:38:23.571Z,412.00
2023-04-22T17:39:23.565Z,420.00
2023-04-22T17:40:23.584Z,432.00
2023-04-22T17:41:23.547Z,416.00
2023-04-22T17:43:23.528Z,416.00
2023-04-22T17:44:23.511Z,416.00
2023-04-22T17:45:23.499Z,408.00
2023-04-22T17:46:23.565Z,396.00
2023-04-22T17:47:23.505Z,364.00
2023-04-22T17:48:23.496Z,328.00
2023-04-22T17:49:23.453Z,304.00
2023-04-22T17:50:23.468Z,316.00
2023-04-22T17:51:23.431Z,312.00
2023-04-22T17:52:23.431Z,292.00
2023-04-22T17:53:23.422Z,272.00
2023-04-22T17:54:23.532Z,268.00
2023-04-22T17:55:23.415Z,264.00
2023-04-22T17:56:23.400Z,264.00
2023-04-22T17:57:23.557Z,264.00
2023-04-22T17:58:23.446Z,248.00
2023-04-22T17:59:23.349Z,228.00
2023-04-22T18:00:23.340Z,212.00
2023-04-22T18:01:23.373Z,208.00
2023-04-22T18:02:23.519Z,204.00
2023-04-22T18:03:23.497Z,204.00
2023-04-22T18:04:23.363Z,208.00
2023-04-22T18:05:23.286Z,212.00
2023-04-22T18:06:23.262Z,212.00
2023-04-22T18:07:23.290Z,200.00
2023-04-22T18:08:23.285Z,180.00
2023-04-22T18:09:23.233Z,156.00
2023-04-22T18:10:23.215Z,132.00
2023-04-22T18:11:23.204Z,104.00
2023-04-22T18:12:23.196Z,80.00
2023-04-22T18:13:23.209Z,68.00
2023-04-22T18:14:23.167Z,68.00
2023-04-22T18:15:23.201Z,68.00
2023-04-22T18:16:23.185Z,64.00
2023-04-22T18:17:23.174Z,56.00
2023-04-22T18:18:23.149Z,56.00
2023-04-22T18:19:23.167Z,52.00
2023-04-22T18:20:23.109Z,52.00
2023-04-22T18:21:23.083Z,52.00
2023-04-22T18:22:23.078Z,48.00
2023-04-22T18:23:23.062Z,44.00
2023-04-22T18:24:23.059Z,40.00
2023-04-22T18:25:23.087Z,36.00
2023-04-22T18:26:23.032Z,32.00
2023-04-22T18:27:23.015Z,32.00
2023-04-22T18:28:23.004Z,28.00
2023-04-22T18:29:23.011Z,28.00
2023-04-22T18:30:23.009Z,24.00
2023-04-22T18:31:23.069Z,24.00
2023-04-22T18:32:23.005Z,20.00
2023-04-22T18:33:22.953Z,20.00
2023-04-22T18:34:22.953Z,20.00
2023-04-22T18:35:22.964Z,16.00
2023-04-22T18:36:22.906Z,12.00
2023-04-22T18:37:22.930Z,12.00
2023-04-22T18:38:22.900Z,12.00
2023-04-22T18:39:22.873Z,8.00
2023-04-22T18:40:22.866Z,8.00
2023-04-22T18:41:22.881Z,8.00
2023-04-22T18:42:22.872Z,4.00
2023-04-22T18:43:22.837Z,4.00
2023-04-22T18:44:22.818Z,8.00
2023-04-22T18:45:22.801Z,4.00
2023-04-22T18:46:22.858Z,4.00
2023-04-22T18:47:23.091Z,4.00
2023-04-22T18:48:22.767Z,4.00
2023-04-22T18:49:22.752Z,4.00
2023-04-22T18:50:22.740Z,4.00
2023-04-22T18:51:22.727Z,4.00
2023-04-22T18:52:22.765Z,0.00
2023-04-22T18:53:22.703Z,4.00
2023-04-22T18:54:22.720Z,4.00
2023-04-22T18:55:22.678Z,0.00
2023-04-22T18:56:22.676Z,0.00
2023-04-22T18:57:22.668Z,0.00
2023-04-22T18:58:22.652Z,0.00
2023-04-22T18:59:22.666Z,0.00
2023-04-22T19:00:22.626Z,0.00
2023-04-22T19:01:22.648Z,0.00
2023-04-22T19:02:22.645Z,0.00
2023-04-22T19:03:22.753Z,0.00
2023-04-22T19:04:22.665Z,0.00
2023-04-22T19:05:22.573Z,0.00
2023-04-22T19:06:22.586Z,0.00
2023-04-22T19:07:22.538Z,0.00
2023-04-22T19:08:22.568Z,0.00
2023-04-22T19:09:22.548Z,0.00
2023-04-22T19:10:22.498Z,0.00
2023-04-22T19:11:22.486Z,0.00
2023-04-22T19:12:22.481Z,0.00
2023-04-22T19:13:29.202Z,0.00
2023-04-22T19:14:22.486Z,0.00
2023-04-22T19:15:22.460Z,0.00
2023-04-22T19:16:24.955Z,0.00
2023-04-22T19:17:22.431Z,0.00
2023-04-22T19:18:22.412Z,0.00
2023-04-22T19:19:22.424Z,0.00
2023-04-22T19:20:22.405Z,0.00
2023-04-22T19:21:22.388Z,0.00
2023-04-22T19:22:22.359Z,0.00
2023-04-22T19:23:22.341Z,0.00
2023-04-22T19:24:22.329Z,0.00
2023-04-22T19:25:22.327Z,0.00
2023-04-22T19:26:22.300Z,0.00
2023-04-22T19:27:22.314Z,0.00
2023-04-22T19:28:22.300Z,0.00
2023-04-22T19:29:22.268Z,0.00
2023-04-22T19:30:22.254Z,0.00
2023-04-22T19:31:22.331Z,0.00
2023-04-22T19:32:22.273Z,0.00
2023-04-22T19:33:22.283Z,0.00
2023-04-22T19:34:22.206Z,0.00
2023-04-22T19:35:22.200Z,0.00
2023-04-22T19:36:22.187Z,0.00
2023-04-22T19:37:22.173Z,0.00
2023-04-22T19:38:22.155Z,0.00
2023-04-22T19:39:22.176Z,0.00
2023-04-22T19:40:22.157Z,0.00
2023-04-22T19:41:22.144Z,0.00
2023-04-22T19:42:22.112Z,0.00
2023-04-22T19:43:22.090Z,0.00
2023-04-22T19:44:22.080Z,0.00
2023-04-22T19:45:22.071Z,0.00
2023-04-22T19:46:22.160Z,0.00
2023-04-22T19:47:22.088Z,0.00
2023-04-22T19:48:22.039Z,0.00
2023-04-22T19:49:22.057Z,0.00
2023-04-22T19:50:22.015Z,0.00
2023-04-22T19:51:22.048Z,0.00
2023-04-22T19:52:21.985Z,0.00
2023-04-22T19:53:21.966Z,0.00
2023-04-22T19:54:21.968Z,0.00
2023-04-22T19:55:21.941Z,0.00
2023-04-22T19:56:21.933Z,0.00
2023-04-22T19:57:21.917Z,0.00
2023-04-22T19:58:21.922Z,0.00
2023-04-22T19:59:21.893Z,0.00
2023-04-22T20:00:21.909Z,0.00
2023-04-22T20:01:21.891Z,0.00
2023-04-22T20:02:21.906Z,0.00
2023-04-22T20:03:21.959Z,0.00
2023-04-22T20:04:21.933Z,0.00
2023-04-22T20:05:21.812Z,0.00
2023-04-22T20:06:21.803Z,0.00
2023-04-22T20:07:21.900Z,0.00
2023-04-22T20:08:21.779Z,0.00
2023-04-22T20:09:21.760Z,0.00
2023-04-22T20:10:21.748Z,0.00
2023-04-22T20:11:21.766Z,0.00
2023-04-22T20:12:21.739Z,0.00
2023-04-22T20:13:21.739Z,0.00
2023-04-22T20:14:21.699Z,0.00
2023-04-22T20:15:21.712Z,0.00
2023-04-22T20:16:21.751Z,0.00
2023-04-22T20:17:21.717Z,0.00
2023-04-22T20:18:21.682Z,0.00
2023-04-22T20:19:21.631Z,0.00
2023-04-22T20:20:21.654Z,0.00
2023-04-22T20:21:21.607Z,0.00
2023-04-22T20:22:21.594Z,0.00
2023-04-22T20:23:21.614Z,0.00
2023-04-22T20:24:21.571Z,0.00
2023-04-22T20:25:21.585Z,0.00
2023-04-22T20:26:21.539Z,0.00
2023-04-22T20:27:22.641Z,0.00
2023-04-22T20:28:21.567Z,0.00
2023-04-22T20:29:21.515Z,0.00
2023-04-22T20:30:21.486Z,0.00
2023-04-22T20:31:21.493Z,0.00
2023-04-22T20:32:21.520Z,0.00
2023-04-22T20:33:22.722Z,0.00
2023-04-22T20:34:21.439Z,0.00
2023-04-22T20:35:21.475Z,0.00
2023-04-22T20:36:21.429Z,0.00
2023-04-22T20:37:21.420Z,0.00
2023-04-22T20:38:21.445Z,0.00
2023-04-22T20:39:21.436Z,0.00
2023-04-22T20:40:23.261Z,0.00
2023-04-22T20:41:21.364Z,0.00
2023-04-22T20:42:21.328Z,0.00
2023-04-22T20:43:21.325Z,0.00
2023-04-22T20:44:21.329Z,0.00
2023-04-22T20:45:21.310Z,0.00
2023-04-22T20:46:22.806Z,0.00
2023-04-22T20:47:21.392Z,0.00
2023-04-22T20:48:21.248Z,0.00
2023-04-22T20:49:21.231Z,0.00
2023-04-22T20:50:21.275Z,0.00
2023-04-22T20:51:21.203Z,0.00
2023-04-22T20:52:21.205Z,0.00
2023-04-22T20:53:21.180Z,0.00
2023-04-22T20:54:28.607Z,0.00
2023-04-22T20:55:21.189Z,0.00
2023-04-22T20:56:21.135Z,0.00
2023-04-22T20:57:21.125Z,0.00
2023-04-22T20:58:21.110Z,0.00
2023-04-22T20:59:21.101Z,0.00
2023-04-22T21:00:21.110Z,0.00
2023-04-22T21:01:21.126Z,0.00
2023-04-22T21:02:21.234Z,0.00
2023-04-22T21:03:21.167Z,0.00
2023-04-22T21:04:21.200Z,0.00
2023-04-22T21:05:21.015Z,0.00
2023-04-22T21:06:21.004Z,0.00
2023-04-22T21:07:20.994Z,0.00
2023-04-22T21:08:20.982Z,0.00
2023-04-22T21:09:20.962Z,0.00
2023-04-22T21:10:20.954Z,0.00
2023-04-22T21:11:20.960Z,0.00
2023-04-22T21:12:20.917Z,0.00
2023-04-22T21:13:20.911Z,0.00
2023-04-22T21:14:20.914Z,0.00
2023-04-22T21:15:20.898Z,0.00
2023-04-22T21:16:20.892Z,0.00
2023-04-22T21:17:20.948Z,0.00
2023-04-22T21:18:20.838Z,0.00
2023-04-22T21:19:20.824Z,0.00
2023-04-22T21:20:20.831Z,0.00
2023-04-22T21:21:20.798Z,0.00
2023-04-22T21:22:20.816Z,0.00
2023-04-22T21:23:20.900Z,0.00
2023-04-22T21:24:20.751Z,0.00
2023-04-22T21:25:20.739Z,0.00
2023-04-22T21:26:20.730Z,0.00
2023-04-22T21:27:20.825Z,0.00
2023-04-22T21:28:20.700Z,0.00
2023-04-22T21:29:20.682Z,0.00
2023-04-22T21:30:20.677Z,0.00
2023-04-22T21:31:20.661Z,0.00
2023-04-22T21:32:20.763Z,0.00
2023-04-22T21:33:20.645Z,0.00
2023-04-22T21:34:20.614Z,0.00
2023-04-22T21:35:21.860Z,0.00
2023-04-22T21:36:20.587Z,0.00
2023-04-22T21:37:20.573Z,0.00
2023-04-22T21:38:20.568Z,0.00
2023-04-22T21:39:20.549Z,0.00
2023-04-22T21:40:20.557Z,0.00
2023-04-22T21:41:20.537Z,0.00
2023-04-22T21:42:20.511Z,0.00
2023-04-22T21:43:20.520Z,0.00
2023-04-22T21:44:20.519Z,0.00
2023-04-22T21:45:20.461Z,0.00
2023-04-22T21:46:20.460Z,0.00
2023-04-22T21:47:20.443Z,0.00
2023-04-22T21:48:20.433Z,0.00
2023-04-22T21:49:20.420Z,0.00
2023-04-22T21:50:20.974Z,0.00
2023-04-22T21:51:20.379Z,0.00
2023-04-22T21:52:20.363Z,0.00
2023-04-22T21:53:20.351Z,0.00
2023-04-22T21:54:20.338Z,0.00
2023-04-22T21:55:20.330Z,0.00
2023-04-22T21:56:20.313Z,0.00
2023-04-22T21:57:20.318Z,0.00
2023-04-22T21:58:20.282Z,0.00
2023-04-22T21:59:20.318Z,0.00
2023-04-22T22:00:20.319Z,0.00
2023-04-22T22:01:20.259Z,0.00
2023-04-22T22:02:20.408Z,0.00
2023-04-22T22:03:20.377Z,0.00
2023-04-22T22:04:20.362Z,0.00
2023-04-22T22:05:20.193Z,0.00
2023-04-22T22:06:20.210Z,0.00
2023-04-22T22:07:20.166Z,0.00
2023-04-22T22:08:20.152Z,0.00
2023-04-22T22:09:20.143Z,0.00
2023-04-22T22:10:20.133Z,0.00
2023-04-22T22:11:30.224Z,0.00
2023-04-22T22:12:20.094Z,0.00
2023-04-22T22:13:20.189Z,0.00
2023-04-22T22:14:20.067Z,0.00
2023-04-22T22:15:20.117Z,0.00
2023-04-22T22:16:20.115Z,0.00
2023-04-22T22:17:20.039Z,0.00
2023-04-22T22:18:20.015Z,0.00
2023-04-22T22:19:20.000Z,0.00
2023-04-22T22:20:20.001Z,0.00
2023-04-22T22:21:20.000Z,0.00
2023-04-22T22:22:19.957Z,0.00
2023-04-22T22:23:19.990Z,0.00
2023-04-22T22:24:19.958Z,0.00
2023-04-22T22:25:19.929Z,0.00
2023-04-22T22:26:19.972Z,0.00
2023-04-22T22:27:19.891Z,0.00
2023-04-22T22:28:19.876Z,0.00
2023-04-22T22:29:19.873Z,0.00
2023-04-22T22:30:19.849Z,0.00
2023-04-22T22:31:19.889Z,0.00
2023-04-22T22:32:19.823Z,0.00
2023-04-22T22:33:19.819Z,0.00
2023-04-22T22:34:19.815Z,0.00
2023-04-22T22:35:19.783Z,0.00
2023-04-22T22:36:19.771Z,0.00
2023-04-22T22:37:19.783Z,0.00
2023-04-22T22:38:19.740Z,0.00
2023-04-22T22:39:19.735Z,0.00
2023-04-22T22:40:19.712Z,0.00
2023-04-22T22:41:19.701Z,0.00
2023-04-22T22:42:19.719Z,0.00
2023-04-22T22:43:19.698Z,0.00
2023-04-22T22:44:19.658Z,0.00
2023-04-22T22:45:19.655Z,0.00
2023-04-22T22:46:19.670Z,0.00
2023-04-22T22:47:19.634Z,0.00
2023-04-22T22:48:19.630Z,0.00
2023-04-22T22:49:19.587Z,0.00
2023-04-22T22:50:19.569Z,0.00
2023-04-22T22:51:19.570Z,0.00
2023-04-22T22:52:19.548Z,0.00
2023-04-22T22:53:19.620Z,0.00
2023-04-22T22:54:19.544Z,0.00
2023-04-22T22:55:19.500Z,0.00
2023-04-22T22:56:19.484Z,0.00
2023-04-22T22:57:19.472Z,0.00
2023-04-22T22:58:19.455Z,0.00
2023-04-22T22:59:19.459Z,0.00
2023-04-22T23:00:19.427Z,0.00
2023-04-22T23:01:19.465Z,0.00
2023-04-22T23:02:19.542Z,0.00
2023-04-22T23:03:20.252Z,0.00
2023-04-22T23:04:19.556Z,0.00
2023-04-22T23:05:19.364Z,0.00
2023-04-22T23:06:19.347Z,0.00
2023-04-22T23:07:19.333Z,0.00
2023-04-22T23:08:19.326Z,0.00
2023-04-22T23:09:19.308Z,0.00
2023-04-22T23:10:19.312Z,0.00
2023-04-22T23:11:19.271Z,0.00
2023-04-22T23:12:19.259Z,0.00
2023-04-22T23:13:19.256Z,0.00
2023-04-22T23:14:19.228Z,0.00
2023-04-22T23:15:19.622Z,0.00
2023-04-22T23:16:19.298Z,0.00
2023-04-22T23:17:19.227Z,0.00
2023-04-22T23:18:19.171Z,0.00
2023-04-22T23:19:19.190Z,0.00
2023-04-22T23:20:19.188Z,0.00
2023-04-22T23:21:19.144Z,0.00
2023-04-22T23:22:19.205Z,0.00
2023-04-22T23:23:19.111Z,0.00
2023-04-22T23:24:19.084Z,0.00
2023-04-22T23:25:19.113Z,0.00
2023-04-22T23:26:19.065Z,0.00
2023-04-22T23:27:19.054Z,0.00
2023-04-22T23:28:19.031Z,0.00
2023-04-22T23:29:19.010Z,0.00
2023-04-22T23:30:18.995Z,0.00
2023-04-22T23:31:19.060Z,0.00
2023-04-22T23:32:18.998Z,0.00
2023-04-22T23:33:18.953Z,0.00
2023-04-22T23:34:18.945Z,0.00
2023-04-22T23:35:18.936Z,0.00
2023-04-22T23:36:18.917Z,0.00
2023-04-22T23:37:18.960Z,0.00
2023-04-22T23:38:19.005Z,0.00
2023-04-22T23:39:18.875Z,0.00
2023-04-22T23:40:18.861Z,0.00